createdAt,value
2018-12-10T00:00:45.669Z,7.23
2018-12-10T00:03:22.357Z,7.15
2018-12-10T00:05:52.641Z,7.15
2018-12-10T00:08:20.831Z,7.04
2018-12-10T00:10:49.445Z,7.11
2018-12-10T00:13:17.710Z,7.10
2018-12-10T00:15:46.249Z,7.12
2018-12-10T00:18:14.562Z,7.09
2018-12-10T00:20:42.890Z,7.15
2018-12-10T00:23:11.411Z,7.14
2018-12-10T00:25:40.256Z,7.18
2018-12-10T00:28:08.564Z,7.04
2018-12-10T00:30:36.709Z,7.04
2018-12-10T00:33:05.293Z,7.09
2018-12-10T00:35:33.563Z,7.04
2018-12-10T00:38:01.994Z,6.91
2018-12-10T00:40:30.805Z,6.91
2018-12-10T00:42:59.388Z,6.84
2018-12-10T00:45:28.122Z,6.90
2018-12-10T00:47:56.444Z,6.87
2018-12-10T00:50:24.758Z,6.95
2018-12-10T00:52:53.898Z,6.96
2018-12-10T00:55:22.563Z,6.88
2018-12-10T00:57:51.245Z,6.93
2018-12-10T01:00:19.671Z,6.90
2018-12-10T01:02:48.519Z,6.90
2018-12-10T01:05:16.773Z,6.89
2018-12-10T01:07:45.564Z,6.84
2018-12-10T01:10:14.143Z,6.80
2018-12-10T01:12:42.745Z,6.79
2018-12-10T01:15:11.031Z,6.73
2018-12-10T01:17:39.280Z,6.79
2018-12-10T01:20:07.642Z,6.86
2018-12-10T01:22:36.018Z,6.83
2018-12-10T01:25:04.781Z,6.86
2018-12-10T01:27:33.277Z,6.91
2018-12-10T01:30:01.527Z,6.84
2018-12-10T01:32:30.766Z,6.81
2018-12-10T01:34:59.574Z,6.81
2018-12-10T01:37:28.100Z,6.83
2018-12-10T01:39:57.148Z,6.81
2018-12-10T01:42:25.714Z,6.87
2018-12-10T01:44:54.510Z,6.88
2018-12-10T01:47:22.787Z,6.81
2018-12-10T01:49:51.067Z,6.81
2018-12-10T01:52:19.304Z,6.79
2018-12-10T01:54:47.657Z,6.78
2018-12-10T01:57:15.929Z,6.85
2018-12-10T01:59:44.196Z,6.79
2018-12-10T02:02:12.563Z,6.78
2018-12-10T02:04:40.831Z,6.71
2018-12-10T02:07:09.092Z,6.70
2018-12-10T02:09:37.660Z,6.68
2018-12-10T02:12:06.900Z,6.66
2018-12-10T02:14:35.874Z,6.67
2018-12-10T02:17:04.542Z,6.68
2018-12-10T02:19:33.469Z,6.68
2018-12-10T02:22:02.382Z,6.67
2018-12-10T02:24:30.980Z,6.69
2018-12-10T02:26:59.585Z,6.69
2018-12-10T02:29:27.897Z,6.72
2018-12-10T02:31:56.169Z,6.64
2018-12-10T02:34:24.417Z,6.63
2018-12-10T02:36:52.966Z,6.59
2018-12-10T02:39:21.481Z,6.58
2018-12-10T02:41:49.684Z,6.60
2018-12-10T02:44:19.569Z,6.61
2018-12-10T02:46:47.848Z,6.62
2018-12-10T02:49:16.737Z,6.55
2018-12-10T02:51:45.402Z,6.45
2018-12-10T02:54:13.808Z,6.45
2018-12-10T02:56:42.480Z,6.45
2018-12-10T02:59:11.063Z,6.53
2018-12-10T03:01:39.442Z,6.53
2018-12-10T03:04:08.034Z,6.50
2018-12-10T03:06:36.629Z,6.51
2018-12-10T03:09:07.268Z,6.49
2018-12-10T03:11:36.665Z,6.48
2018-12-10T03:14:04.901Z,6.44
2018-12-10T03:16:33.205Z,6.49
2018-12-10T03:19:02.413Z,6.49
2018-12-10T03:21:31.272Z,6.51
2018-12-10T03:23:59.570Z,6.53
2018-12-10T03:26:27.898Z,6.50
2018-12-10T03:28:56.434Z,6.55
2018-12-10T03:31:25.246Z,6.45
2018-12-10T03:33:53.856Z,6.43
2018-12-10T03:36:22.106Z,6.45
2018-12-10T03:38:50.410Z,6.46
2018-12-10T03:41:18.935Z,6.47
2018-12-10T03:43:47.339Z,6.47
2018-12-10T03:46:15.673Z,6.45
2018-12-10T03:48:44.005Z,6.47
2018-12-10T03:51:12.277Z,6.45
2018-12-10T03:53:40.600Z,6.55
2018-12-10T03:58:48.930Z,6.58
2018-12-10T04:01:17.208Z,6.58
2018-12-10T04:03:47.430Z,6.53
2018-12-10T04:06:15.783Z,6.61
2018-12-10T04:08:44.137Z,6.53
2018-12-10T04:11:12.675Z,6.48
2018-12-10T04:13:40.993Z,6.44
2018-12-10T04:16:09.395Z,6.35
2018-12-10T04:18:37.933Z,6.36
2018-12-10T04:21:06.161Z,6.30
2018-12-10T04:23:34.485Z,6.25
2018-12-10T04:26:04.822Z,6.19
2018-12-10T04:28:33.097Z,6.25
2018-12-10T04:31:01.972Z,6.23
2018-12-10T04:33:30.956Z,6.18
2018-12-10T04:35:59.192Z,6.12
2018-12-10T04:38:27.732Z,6.13
2018-12-10T04:41:13.120Z,6.07
2018-12-10T04:43:43.008Z,6.15
2018-12-10T04:46:11.311Z,6.06
2018-12-10T04:48:39.697Z,6.08
2018-12-10T04:51:08.101Z,6.08
2018-12-10T04:53:36.930Z,6.05
2018-12-10T04:56:05.534Z,5.94
2018-12-10T04:58:34.362Z,5.95
2018-12-10T05:01:03.195Z,5.95
2018-12-10T05:03:31.493Z,5.91
2018-12-10T05:05:59.829Z,5.90
2018-12-10T05:08:28.111Z,5.90
2018-12-10T05:10:56.329Z,5.94
2018-12-10T05:13:24.626Z,5.95
2018-12-10T05:15:53.464Z,5.84
2018-12-10T05:18:22.312Z,5.82
2018-12-10T05:20:51.193Z,5.78
2018-12-10T05:23:20.056Z,5.86
2018-12-10T05:25:48.648Z,5.88
2018-12-10T05:28:16.917Z,5.88
2018-12-10T05:30:48.026Z,5.73
2018-12-10T05:33:19.682Z,5.55
2018-12-10T05:35:50.728Z,5.49
2018-12-10T05:38:20.878Z,5.45
2018-12-10T05:43:32.090Z,4.85
2018-12-10T05:46:02.313Z,4.58
2018-12-10T05:48:36.185Z,4.42
2018-12-10T05:51:06.899Z,4.30
2018-12-10T05:53:38.311Z,4.15
2018-12-10T05:56:09.303Z,4.10
2018-12-10T05:58:40.459Z,4.25
2018-12-10T06:01:12.582Z,4.28
2018-12-10T06:03:43.141Z,4.24
2018-12-10T06:06:15.256Z,4.08
2018-12-10T06:08:47.882Z,3.98
2018-12-10T06:11:18.766Z,3.92
2018-12-10T06:13:50.232Z,3.96
2018-12-10T06:16:21.377Z,4.00
2018-12-10T06:18:53.030Z,4.09
2018-12-10T06:21:25.007Z,4.13
2018-12-10T06:23:56.814Z,4.08
2018-12-10T06:26:33.704Z,4.13
2018-12-10T06:29:05.039Z,4.23
2018-12-10T06:31:36.661Z,4.29
2018-12-10T06:34:09.125Z,4.25
2018-12-10T06:36:40.270Z,4.22
2018-12-10T06:39:11.942Z,4.33
2018-12-10T06:41:43.337Z,4.25
2018-12-10T06:44:15.402Z,4.26
2018-12-10T06:46:46.887Z,4.31
2018-12-10T06:49:18.036Z,4.35
2018-12-10T06:51:48.248Z,4.33
2018-12-10T06:54:18.932Z,4.42
2018-12-10T06:56:49.360Z,4.52
2018-12-10T07:02:02.591Z,4.53
2018-12-10T07:04:34.817Z,4.62
2018-12-10T07:07:05.810Z,4.73
2018-12-10T07:09:37.076Z,4.71
2018-12-10T07:12:07.559Z,4.85
2018-12-10T07:14:39.104Z,4.78
2018-12-10T07:17:10.638Z,4.95
2018-12-10T07:19:42.095Z,5.01
2018-12-10T07:22:14.275Z,5.04
2018-12-10T07:24:46.547Z,5.11
2018-12-10T07:27:17.983Z,5.16
2018-12-10T07:29:49.184Z,5.17
2018-12-10T07:32:21.116Z,5.22
2018-12-10T07:34:53.182Z,5.28
2018-12-10T07:37:23.432Z,5.31
2018-12-10T07:39:54.546Z,5.40
2018-12-10T07:42:26.217Z,5.36
2018-12-10T07:44:58.080Z,5.35
2018-12-10T07:47:30.172Z,5.40
2018-12-10T07:50:02.120Z,5.44
2018-12-10T07:52:32.320Z,5.57
2018-12-10T07:55:03.834Z,5.65
2018-12-10T07:57:35.356Z,5.71
2018-12-10T08:00:06.211Z,5.74
2018-12-10T08:02:38.407Z,5.69
2018-12-10T08:05:12.446Z,5.81
2018-12-10T08:07:44.179Z,5.68
2018-12-10T08:10:15.568Z,5.75
2018-12-10T08:12:48.820Z,5.67
2018-12-10T08:15:20.184Z,5.53
2018-12-10T08:17:51.623Z,5.57
2018-12-10T08:20:24.119Z,5.54
2018-12-10T08:22:55.596Z,5.65
2018-12-10T08:25:27.559Z,5.65
2018-12-10T08:27:58.267Z,5.64
2018-12-10T08:30:30.125Z,5.57
2018-12-10T08:33:01.692Z,5.68
2018-12-10T08:35:42.174Z,5.75
2018-12-10T08:38:06.198Z,5.91
2018-12-10T08:40:39.028Z,5.87
2018-12-10T08:43:11.399Z,5.98
2018-12-10T08:45:43.919Z,6.10
2018-12-10T08:48:15.843Z,6.00
2018-12-10T08:50:48.321Z,6.01
2018-12-10T08:53:20.256Z,6.14
2018-12-10T08:55:51.674Z,6.12
2018-12-10T08:58:23.559Z,6.33
2018-12-10T09:00:55.965Z,6.38
2018-12-10T09:03:28.331Z,6.19
2018-12-10T09:05:59.996Z,6.15
2018-12-10T09:08:30.990Z,6.29
2018-12-10T09:11:01.886Z,6.18
2018-12-10T09:13:34.021Z,6.49
2018-12-10T09:16:06.061Z,6.54
2018-12-10T09:18:37.219Z,6.56
2018-12-10T09:21:08.355Z,6.47
2018-12-10T09:23:40.635Z,6.54
2018-12-10T09:26:13.574Z,6.76
2018-12-10T09:28:45.202Z,6.85
2018-12-10T09:31:17.402Z,6.69
2018-12-10T09:33:50.002Z,6.68
2018-12-10T09:36:21.621Z,6.79
2018-12-10T09:38:52.653Z,6.63
2018-12-10T09:41:23.580Z,6.63
2018-12-10T09:43:54.103Z,6.62
2018-12-10T09:46:27.626Z,6.79
2018-12-10T09:48:59.233Z,6.65
2018-12-10T09:51:31.798Z,6.73
2018-12-10T09:54:03.751Z,6.69
2018-12-10T09:56:35.060Z,6.71
2018-12-10T09:59:06.973Z,6.78
2018-12-10T10:01:39.321Z,7.30
2018-12-10T10:04:11.045Z,7.40
2018-12-10T10:06:43.887Z,7.68
2018-12-10T10:09:19.152Z,7.54
2018-12-10T10:11:50.379Z,7.55
2018-12-10T10:14:22.611Z,7.52
2018-12-10T10:16:54.638Z,7.24
2018-12-10T10:19:26.206Z,6.99
2018-12-10T10:21:57.876Z,6.93
2018-12-10T10:24:30.317Z,6.76
2018-12-10T10:27:00.560Z,6.72
2018-12-10T10:29:31.127Z,6.61
2018-12-10T10:32:02.264Z,6.61
2018-12-10T10:34:34.542Z,6.73
2018-12-10T10:37:06.628Z,6.72
2018-12-10T10:39:37.954Z,6.82
2018-12-10T10:42:12.054Z,6.72
2018-12-10T10:44:43.843Z,6.88
2018-12-10T10:47:15.897Z,6.87
2018-12-10T10:49:46.829Z,6.89
2018-12-10T10:52:18.875Z,7.02
2018-12-10T10:54:50.268Z,6.81
2018-12-10T10:57:22.446Z,6.72
2018-12-10T10:59:54.219Z,6.75
2018-12-10T11:02:31.387Z,6.94
2018-12-10T11:05:02.732Z,7.33
2018-12-10T11:07:35.027Z,7.25
2018-12-10T11:10:07.772Z,7.35
2018-12-10T11:12:39.471Z,7.36
2018-12-10T11:15:14.659Z,7.64
2018-12-10T11:17:46.946Z,7.54
2018-12-10T11:20:18.162Z,7.32
2018-12-10T11:22:49.215Z,7.30
2018-12-10T11:25:29.283Z,7.61
2018-12-10T11:28:10.921Z,7.54
2018-12-10T11:30:43.550Z,7.55
2018-12-10T11:33:14.333Z,7.67
2018-12-10T11:35:45.745Z,7.77
2018-12-10T11:38:17.481Z,7.48
2018-12-10T11:40:48.964Z,7.55
2018-12-10T11:43:21.946Z,7.40
2018-12-10T11:45:54.348Z,7.58
2018-12-10T11:48:25.392Z,7.55
2018-12-10T11:50:56.452Z,7.53
2018-12-10T11:53:28.623Z,7.66
2018-12-10T11:55:59.687Z,7.37
2018-12-10T11:58:32.493Z,7.19
2018-12-10T12:01:03.853Z,7.22
2018-12-10T12:03:35.397Z,7.25
2018-12-10T12:06:08.588Z,7.61
2018-12-10T12:08:40.160Z,7.65
2018-12-10T12:11:11.135Z,7.49
2018-12-10T12:13:44.435Z,7.36
2018-12-10T12:16:16.145Z,7.71
2018-12-10T12:18:47.751Z,7.63
2018-12-10T12:21:18.614Z,7.47
2018-12-10T12:23:49.318Z,7.58
2018-12-10T12:26:23.356Z,7.41
2018-12-10T12:28:58.594Z,7.64
2018-12-10T12:31:29.884Z,7.69
2018-12-10T12:34:00.733Z,7.83
2018-12-10T12:36:43.116Z,7.85
2018-12-10T12:39:15.764Z,7.92
2018-12-10T12:41:47.212Z,8.32
2018-12-10T12:44:18.659Z,7.99
2018-12-10T12:46:50.181Z,7.63
2018-12-10T12:49:22.612Z,7.66
2018-12-10T12:51:54.654Z,7.80
2018-12-10T12:54:30.571Z,7.80
2018-12-10T12:57:02.311Z,7.85
2018-12-10T12:59:33.252Z,7.88
2018-12-10T13:02:04.668Z,7.64
2018-12-10T13:04:35.439Z,7.87
2018-12-10T13:07:06.191Z,8.77
2018-12-10T13:09:35.697Z,8.66
2018-12-10T13:12:05.812Z,8.20
2018-12-10T13:14:38.255Z,8.23
2018-12-10T13:17:08.352Z,8.20
2018-12-10T13:19:40.200Z,9.13
2018-12-10T13:22:11.415Z,10.99
2018-12-10T13:27:30.781Z,12.12
2018-12-10T13:30:04.385Z,10.49
2018-12-10T13:32:35.078Z,9.93
2018-12-10T13:35:06.302Z,9.06
2018-12-10T13:40:25.009Z,8.61
2018-12-10T13:42:55.689Z,9.71
2018-12-10T13:45:30.981Z,9.54
2018-12-10T13:48:00.646Z,8.78
2018-12-10T13:50:31.950Z,8.04
2018-12-10T13:53:03.139Z,7.63
2018-12-10T13:55:35.076Z,7.51
2018-12-10T13:58:06.284Z,7.29
2018-12-10T14:00:39.863Z,7.26
2018-12-10T14:03:10.282Z,7.86
2018-12-10T14:05:41.038Z,10.25
2018-12-10T14:08:12.027Z,11.50
2018-12-10T14:10:42.064Z,12.33
2018-12-10T14:13:12.164Z,13.45
2018-12-10T14:15:43.349Z,14.26
2018-12-10T14:18:15.234Z,14.01
2018-12-10T14:20:46.887Z,13.29
2018-12-10T14:23:18.250Z,11.45
2018-12-10T14:25:49.223Z,10.74
2018-12-10T14:28:21.577Z,10.38
2018-12-10T14:30:53.608Z,9.92
2018-12-10T14:33:25.364Z,9.42
2018-12-10T14:35:57.642Z,8.49
2018-12-10T14:38:28.773Z,8.47
2018-12-10T14:41:00.988Z,8.31
2018-12-10T14:43:32.240Z,8.02
2018-12-10T14:46:03.285Z,7.55
2018-12-10T14:48:34.532Z,7.46
2018-12-10T14:51:05.459Z,7.58
2018-12-10T14:53:37.633Z,7.11
2018-12-10T14:56:11.787Z,6.89
2018-12-10T14:58:43.454Z,6.87
2018-12-10T15:01:15.274Z,6.73
2018-12-10T15:03:47.088Z,6.59
2018-12-10T15:06:25.126Z,6.53
2018-12-10T15:08:58.364Z,6.56
2018-12-10T15:11:38.272Z,6.48
2018-12-10T15:14:09.712Z,6.62
2018-12-10T15:16:39.670Z,6.65
2018-12-10T15:19:10.859Z,6.65
2018-12-10T15:21:46.784Z,6.56
2018-12-10T15:24:20.611Z,6.55
2018-12-10T15:26:51.381Z,6.24
2018-12-10T15:29:21.790Z,5.78
2018-12-10T15:31:51.901Z,5.44
2018-12-10T15:34:21.773Z,5.41
2018-12-10T15:36:51.662Z,5.33
2018-12-10T15:39:21.555Z,5.33
2018-12-10T15:41:52.329Z,5.31
2018-12-10T15:44:27.113Z,5.28
2018-12-10T15:47:00.518Z,5.27
2018-12-10T15:49:31.182Z,5.23
2018-12-10T15:52:01.304Z,5.19
2018-12-10T15:54:31.444Z,5.19
2018-12-10T15:57:02.140Z,5.31
2018-12-10T15:59:31.636Z,5.31
2018-12-10T16:02:01.443Z,5.34
2018-12-10T16:04:34.066Z,5.33
2018-12-10T16:07:04.258Z,5.35
2018-12-10T16:09:34.843Z,5.40
2018-12-10T16:12:04.873Z,5.40
2018-12-10T16:14:35.502Z,5.36
2018-12-10T16:17:06.451Z,5.38
2018-12-10T16:19:37.086Z,5.34
2018-12-10T16:22:07.891Z,5.34
2018-12-10T16:24:38.517Z,5.36
2018-12-10T16:27:09.792Z,5.39
2018-12-10T16:29:39.102Z,5.34
2018-12-10T16:32:09.436Z,5.33
2018-12-10T16:34:39.823Z,5.36
2018-12-10T16:37:10.293Z,5.30
2018-12-10T16:39:43.767Z,5.27
2018-12-10T16:42:12.521Z,5.23
2018-12-10T16:44:41.928Z,5.26
2018-12-10T16:47:12.472Z,5.27
2018-12-10T16:49:42.278Z,5.30
2018-12-10T16:52:12.881Z,5.34
2018-12-10T16:54:46.298Z,5.25
2018-12-10T16:57:18.671Z,5.31
2018-12-10T16:59:49.872Z,5.28
2018-12-10T17:02:20.740Z,5.32
2018-12-10T17:04:54.500Z,5.29
2018-12-10T17:07:25.630Z,5.31
2018-12-10T17:09:56.674Z,5.38
2018-12-10T17:12:31.966Z,5.43
2018-12-10T17:15:03.649Z,5.36
2018-12-10T17:17:43.364Z,5.49
2018-12-10T17:20:14.766Z,5.61
2018-12-10T17:22:45.627Z,5.65
2018-12-10T17:25:16.115Z,5.64
2018-12-10T17:27:51.272Z,5.59
2018-12-10T17:30:21.954Z,5.77
2018-12-10T17:32:52.740Z,5.78
2018-12-10T17:35:22.925Z,5.87
2018-12-10T17:37:53.322Z,5.93
2018-12-10T17:40:23.431Z,5.99
2018-12-10T17:42:53.912Z,6.03
2018-12-10T17:45:24.079Z,5.99
2018-12-10T17:47:55.519Z,6.03
2018-12-10T17:50:25.058Z,5.95
2018-12-10T17:52:55.135Z,5.95
2018-12-10T17:55:25.580Z,5.94
2018-12-10T17:57:55.644Z,5.92
2018-12-10T18:00:25.680Z,5.91
2018-12-10T18:02:56.151Z,6.00
2018-12-10T18:05:26.166Z,5.93
2018-12-10T18:07:56.507Z,5.97
2018-12-10T18:10:26.989Z,6.00
2018-12-10T18:12:57.441Z,5.98
2018-12-10T18:15:27.358Z,5.97
2018-12-10T18:17:59.820Z,5.94
2018-12-10T18:20:46.639Z,6.01
2018-12-10T18:23:17.025Z,6.10
2018-12-10T18:25:47.678Z,6.03
2018-12-10T18:28:18.351Z,6.00
2018-12-10T18:30:49.462Z,5.91
2018-12-10T18:33:19.537Z,5.97
2018-12-10T18:35:52.086Z,5.97
2018-12-10T18:38:22.099Z,6.05
2018-12-10T18:40:52.340Z,6.07
2018-12-10T18:43:22.467Z,6.14
2018-12-10T18:45:53.291Z,6.09
2018-12-10T18:48:22.464Z,6.15
2018-12-10T18:50:52.593Z,6.18
2018-12-10T18:53:23.006Z,6.29
2018-12-10T18:55:53.529Z,6.31
2018-12-10T18:58:23.558Z,6.30
2018-12-10T19:00:53.998Z,5.21
2018-12-10T19:03:24.637Z,3.89
2018-12-10T19:05:55.247Z,3.09
2018-12-10T19:08:25.796Z,2.58
2018-12-10T19:10:56.499Z,2.56
2018-12-10T19:13:26.673Z,2.66
2018-12-10T19:15:57.175Z,2.83
2018-12-10T19:18:28.007Z,2.83
2018-12-10T19:20:58.957Z,2.87
2018-12-10T19:23:29.510Z,2.93
2018-12-10T19:25:59.576Z,2.83
2018-12-10T19:28:29.925Z,2.82
2018-12-10T19:31:00.413Z,2.86
2018-12-10T19:33:30.968Z,2.90
2018-12-10T19:36:01.222Z,2.91
2018-12-10T19:38:29.518Z,3.07
2018-12-10T19:40:57.852Z,3.21
2018-12-10T19:43:26.665Z,3.25
2018-12-10T19:45:55.780Z,3.28
2018-12-10T19:48:24.816Z,3.33
2018-12-10T19:50:54.005Z,3.23
2018-12-10T19:53:22.417Z,3.36
2018-12-10T19:55:51.576Z,3.28
2018-12-10T19:58:21.138Z,3.23
2018-12-10T20:00:50.445Z,3.22
2018-12-10T20:03:18.781Z,3.19
2018-12-10T20:05:53.913Z,3.15
2018-12-10T20:08:23.397Z,3.08
2018-12-10T20:10:52.141Z,3.03
2018-12-10T20:13:20.919Z,3.02
2018-12-10T20:15:49.669Z,3.08
2018-12-10T20:18:18.273Z,3.15
2018-12-10T20:20:46.548Z,3.08
2018-12-10T20:23:15.158Z,3.09
2018-12-10T20:25:43.663Z,3.03
2018-12-10T20:28:12.572Z,2.96
2018-12-10T20:30:41.395Z,2.93
2018-12-10T20:33:09.725Z,2.94
2018-12-10T20:35:38.144Z,2.91
2018-12-10T20:38:06.468Z,2.95
2018-12-10T20:40:34.861Z,2.91
2018-12-10T20:43:04.573Z,2.89
2018-12-10T20:45:32.869Z,2.91
2018-12-10T20:48:01.751Z,2.87
2018-12-10T20:50:30.558Z,2.85
2018-12-10T20:52:58.869Z,2.85
2018-12-10T20:55:28.042Z,2.77
2018-12-10T20:57:57.553Z,2.72
2018-12-10T21:03:09.179Z,2.83
2018-12-10T21:05:42.353Z,2.88
2018-12-10T21:08:10.919Z,2.87
2018-12-10T21:10:39.349Z,2.84
2018-12-10T21:13:08.750Z,2.79
2018-12-10T21:15:37.786Z,2.85
2018-12-10T21:18:06.251Z,2.83
2018-12-10T21:20:35.859Z,2.83
2018-12-10T21:23:04.253Z,2.89
2018-12-10T21:25:32.952Z,2.97
2018-12-10T21:28:02.087Z,3.15
2018-12-10T21:30:30.960Z,3.20
2018-12-10T21:33:00.217Z,3.18
2018-12-10T21:35:29.721Z,3.25
2018-12-10T21:37:58.739Z,3.19
2018-12-10T21:40:27.432Z,3.14
2018-12-10T21:42:56.396Z,3.24
2018-12-10T21:45:24.876Z,3.37
2018-12-10T21:47:53.900Z,3.44
2018-12-10T21:50:22.670Z,3.48
2018-12-10T21:52:51.657Z,3.48
2018-12-10T21:55:20.351Z,3.54
2018-12-10T21:57:48.953Z,3.60
2018-12-10T22:00:18.443Z,3.59
2018-12-10T22:02:48.142Z,3.57
2018-12-10T22:05:17.601Z,3.46
2018-12-10T22:07:47.953Z,3.37
2018-12-10T22:10:16.605Z,3.20
2018-12-10T22:12:45.905Z,3.15
2018-12-10T22:15:14.332Z,3.19
2018-12-10T22:17:42.739Z,3.26
2018-12-10T22:20:13.101Z,3.32
2018-12-10T22:22:42.687Z,3.44
2018-12-10T22:25:11.774Z,3.37
2018-12-10T22:27:40.202Z,3.35
2018-12-10T22:30:09.483Z,3.25
2018-12-10T22:32:38.689Z,3.13
2018-12-10T22:35:10.358Z,3.08
2018-12-10T22:37:39.297Z,2.98
2018-12-10T22:40:07.641Z,2.97
2018-12-10T22:42:35.979Z,3.02
2018-12-10T22:45:05.421Z,3.00
2018-12-10T22:47:34.074Z,2.91
2018-12-10T22:50:03.061Z,2.94
2018-12-10T22:52:31.691Z,2.85
2018-12-10T22:55:00.019Z,2.85
2018-12-10T22:57:28.768Z,2.89
2018-12-10T22:59:57.177Z,2.83
2018-12-10T23:02:25.640Z,2.74
2018-12-10T23:04:53.923Z,2.79
2018-12-10T23:07:23.381Z,2.79
2018-12-10T23:09:51.709Z,2.79
2018-12-10T23:12:20.008Z,2.72
2018-12-10T23:14:48.298Z,2.76
2018-12-10T23:17:16.707Z,2.88
2018-12-10T23:19:45.050Z,2.76
2018-12-10T23:22:13.618Z,2.62
2018-12-10T23:24:42.353Z,2.60
2018-12-10T23:27:10.705Z,2.54
2018-12-10T23:29:39.094Z,2.55
2018-12-10T23:32:07.364Z,2.57
2018-12-10T23:34:35.693Z,2.61
2018-12-10T23:37:03.971Z,2.63
2018-12-10T23:39:32.293Z,2.56
2018-12-10T23:42:00.642Z,2.57
2018-12-10T23:44:34.758Z,2.59
2018-12-10T23:47:03.637Z,2.57
2018-12-10T23:49:32.269Z,2.50
2018-12-10T23:52:00.721Z,2.62
2018-12-10T23:54:29.138Z,2.65
2018-12-10T23:56:57.746Z,2.79
2018-12-10T23:59:26.298Z,2.78
